createdAt,value
2017-06-17T00:00:09.260Z,937.41
2017-06-17T00:00:37.394Z,937.39
2017-06-17T00:01:05.516Z,937.4
2017-06-17T00:01:33.557Z,937.4
2017-06-17T00:02:01.690Z,937.43
2017-06-17T00:02:29.739Z,937.42
2017-06-17T00:02:57.889Z,937.43
2017-06-17T00:03:26.004Z,937.44
2017-06-17T00:03:54.143Z,937.44
2017-06-17T00:04:22.253Z,937.45
2017-06-17T00:04:50.306Z,937.47
2017-06-17T00:05:18.445Z,937.45
2017-06-17T00:05:46.569Z,937.45
2017-06-17T00:06:14.884Z,937.43
2017-06-17T00:06:42.826Z,937.45
2017-06-17T00:07:10.978Z,937.44
2017-06-17T00:07:39.136Z,937.46
2017-06-17T00:08:07.292Z,937.43
2017-06-17T00:08:35.350Z,937.47
2017-06-17T00:09:03.476Z,937.43
2017-06-17T00:09:31.539Z,937.4
2017-06-17T00:09:59.699Z,937.41
2017-06-17T00:10:27.857Z,937.38
2017-06-17T00:10:55.896Z,937.38
2017-06-17T00:11:23.935Z,937.39
2017-06-17T00:11:52.059Z,937.39
2017-06-17T00:12:20.031Z,937.36
2017-06-17T00:12:48.172Z,937.37
2017-06-17T00:13:16.236Z,937.34
2017-06-17T00:13:44.382Z,937.35
2017-06-17T00:14:12.526Z,937.41
2017-06-17T00:14:40.731Z,937.37
2017-06-17T00:15:08.686Z,937.39
2017-06-17T00:15:36.757Z,937.37
2017-06-17T00:16:04.809Z,937.39
2017-06-17T00:16:32.839Z,937.37
2017-06-17T00:17:00.974Z,937.39
2017-06-17T00:17:29.110Z,937.38
2017-06-17T00:17:57.262Z,937.4
2017-06-17T00:18:25.285Z,937.39
2017-06-17T00:18:53.326Z,937.38
2017-06-17T00:19:21.276Z,937.37
2017-06-17T00:19:49.417Z,937.41
2017-06-17T00:20:17.561Z,937.39
2017-06-17T00:20:45.693Z,937.4
2017-06-17T00:21:13.840Z,937.43
2017-06-17T00:21:41.780Z,937.38
2017-06-17T00:22:09.906Z,937.41
2017-06-17T00:22:37.951Z,937.41
2017-06-17T00:23:06.129Z,937.38
2017-06-17T00:23:34.253Z,937.44
2017-06-17T00:24:02.301Z,937.43
2017-06-17T00:24:30.347Z,937.45
2017-06-17T00:24:58.480Z,937.44
2017-06-17T00:25:26.611Z,937.49
2017-06-17T00:25:54.750Z,937.51
2017-06-17T00:26:22.690Z,937.47
2017-06-17T00:26:50.849Z,937.49
2017-06-17T00:27:18.989Z,937.47
2017-06-17T00:27:47.092Z,937.48
2017-06-17T00:28:15.154Z,937.46
2017-06-17T00:28:43.183Z,937.48
2017-06-17T00:29:11.336Z,937.44
2017-06-17T00:29:39.474Z,937.42
2017-06-17T00:30:07.537Z,937.42
2017-06-17T00:30:35.626Z,937.46
2017-06-17T00:31:03.772Z,937.45
2017-06-17T00:31:31.910Z,937.43
2017-06-17T00:32:00.064Z,937.41
2017-06-17T00:32:28.211Z,937.41
2017-06-17T00:32:56.308Z,937.43
2017-06-17T00:33:24.456Z,937.44
2017-06-17T00:33:52.619Z,937.42
2017-06-17T00:34:20.661Z,937.44
2017-06-17T00:34:48.809Z,937.39
2017-06-17T00:35:16.774Z,937.41
2017-06-17T00:35:44.906Z,937.39
2017-06-17T00:36:13.078Z,937.41
2017-06-17T00:36:41.020Z,937.42
2017-06-17T00:37:09.166Z,937.42
2017-06-17T00:37:37.317Z,937.37
2017-06-17T00:38:05.472Z,937.38
2017-06-17T00:38:33.603Z,937.37
2017-06-17T00:39:01.741Z,937.38
2017-06-17T00:39:29.914Z,937.39
2017-06-17T00:39:58.074Z,937.38
2017-06-17T00:40:26.138Z,937.4
2017-06-17T00:40:54.291Z,937.4
2017-06-17T00:41:22.442Z,937.39
2017-06-17T00:41:50.597Z,937.4
2017-06-17T00:42:18.744Z,937.37
2017-06-17T00:42:46.793Z,937.36
2017-06-17T00:43:14.940Z,937.34
2017-06-17T00:43:42.891Z,937.34
2017-06-17T00:44:11.080Z,937.36
2017-06-17T00:44:39.252Z,937.35
2017-06-17T00:45:07.360Z,937.33
2017-06-17T00:45:35.532Z,937.33
2017-06-17T00:46:03.659Z,937.34
2017-06-17T00:46:31.842Z,937.32
2017-06-17T00:46:59.883Z,937.3
2017-06-17T00:47:28.039Z,937.3
2017-06-17T00:47:56.190Z,937.32
2017-06-17T00:48:24.354Z,937.33
2017-06-17T00:48:52.413Z,937.3
2017-06-17T00:49:20.452Z,937.3
2017-06-17T00:49:48.493Z,937.27
2017-06-17T00:50:16.637Z,937.26
2017-06-17T00:50:44.678Z,937.27
2017-06-17T00:51:12.820Z,937.29
2017-06-17T00:51:40.956Z,937.29
2017-06-17T00:52:09.085Z,937.28
2017-06-17T00:52:37.040Z,937.29
2017-06-17T00:53:05.110Z,937.26
2017-06-17T00:53:33.238Z,937.3
2017-06-17T00:54:01.287Z,937.29
2017-06-17T00:54:29.434Z,937.3
2017-06-17T00:54:57.450Z,937.3
2017-06-17T00:55:25.540Z,937.28
2017-06-17T00:55:53.700Z,937.28
2017-06-17T00:56:21.732Z,937.25
2017-06-17T00:56:49.857Z,937.24
2017-06-17T00:57:17.909Z,937.28
2017-06-17T00:57:46.040Z,937.23
2017-06-17T00:58:14.180Z,937.26
2017-06-17T00:58:42.341Z,937.25
2017-06-17T00:59:10.457Z,937.26
2017-06-17T00:59:38.491Z,937.22
2017-06-17T01:00:06.631Z,937.21
2017-06-17T01:00:34.642Z,937.23
2017-06-17T01:01:02.770Z,937.24
2017-06-17T01:01:30.682Z,937.23
2017-06-17T01:01:58.839Z,937.22
2017-06-17T01:02:26.855Z,937.24
2017-06-17T01:02:55.009Z,937.2
2017-06-17T01:03:23.061Z,937.21
2017-06-17T01:03:51.220Z,937.25
2017-06-17T01:04:19.263Z,937.22
2017-06-17T01:04:47.319Z,937.22
2017-06-17T01:05:15.462Z,937.23
2017-06-17T01:05:43.530Z,937.24
2017-06-17T01:06:11.644Z,937.25
2017-06-17T01:06:39.711Z,937.25
2017-06-17T01:07:07.743Z,937.25
2017-06-17T01:07:35.802Z,937.3
2017-06-17T01:08:03.919Z,937.25
2017-06-17T01:08:31.874Z,937.24
2017-06-17T01:08:59.911Z,937.23
2017-06-17T01:09:27.946Z,937.27
2017-06-17T01:09:56.094Z,937.28
2017-06-17T01:10:24.249Z,937.27
2017-06-17T01:10:52.397Z,937.26
2017-06-17T01:11:20.448Z,937.27
2017-06-17T01:11:48.402Z,937.29
2017-06-17T01:12:16.541Z,937.28
2017-06-17T01:12:44.682Z,937.25
2017-06-17T01:13:12.716Z,937.29
2017-06-17T01:13:40.826Z,937.28
2017-06-17T01:14:08.861Z,937.25
2017-06-17T01:14:37.006Z,937.26
2017-06-17T01:15:05.045Z,937.27
2017-06-17T01:15:33.003Z,937.24
2017-06-17T01:16:01.019Z,937.26
2017-06-17T01:16:29.146Z,937.25
2017-06-17T01:16:57.277Z,937.21
2017-06-17T01:17:25.326Z,937.24
2017-06-17T01:17:53.494Z,937.21
2017-06-17T01:18:21.550Z,937.27
2017-06-17T01:18:49.679Z,937.25
2017-06-17T01:19:17.819Z,937.24
2017-06-17T01:19:45.935Z,937.25
2017-06-17T01:20:14.002Z,937.27
2017-06-17T01:20:42.138Z,937.25
2017-06-17T01:21:10.274Z,937.25
2017-06-17T01:21:38.459Z,937.23
2017-06-17T01:22:06.507Z,937.25
2017-06-17T01:22:34.443Z,937.23
2017-06-17T01:23:02.581Z,937.26
2017-06-17T01:23:30.650Z,937.21
2017-06-17T01:23:58.780Z,937.24
2017-06-17T01:24:26.805Z,937.2
2017-06-17T01:24:54.823Z,937.22
2017-06-17T01:25:22.782Z,937.24
2017-06-17T01:25:50.853Z,937.21
2017-06-17T01:26:19.010Z,937.23
2017-06-17T01:26:47.152Z,937.2
2017-06-17T01:27:15.084Z,937.2
2017-06-17T01:27:43.018Z,937.18
2017-06-17T01:28:11.164Z,937.18
2017-06-17T01:28:39.312Z,937.19
2017-06-17T01:29:07.451Z,937.19
2017-06-17T01:29:35.587Z,937.17
2017-06-17T01:30:03.696Z,937.18
2017-06-17T01:30:31.837Z,937.2
2017-06-17T01:30:59.992Z,937.2
2017-06-17T01:31:28.136Z,937.19
2017-06-17T01:31:56.271Z,937.16
2017-06-17T01:32:24.417Z,937.21
2017-06-17T01:32:52.342Z,937.22
2017-06-17T01:33:20.478Z,937.15
2017-06-17T01:33:48.531Z,937.22
2017-06-17T01:34:16.586Z,937.17
2017-06-17T01:34:44.740Z,937.13
2017-06-17T01:35:12.814Z,937.12
2017-06-17T01:35:40.978Z,937.14
2017-06-17T01:36:09.118Z,937.16
2017-06-17T01:36:37.274Z,937.13
2017-06-17T01:37:05.435Z,937.15
2017-06-17T01:37:33.488Z,937.17
2017-06-17T01:38:01.628Z,937.2
2017-06-17T01:38:29.796Z,937.19
2017-06-17T01:38:57.906Z,937.19
2017-06-17T01:39:25.938Z,937.19
2017-06-17T01:39:54.061Z,937.21
2017-06-17T01:40:22.209Z,937.25
2017-06-17T01:40:50.232Z,937.31
2017-06-17T01:41:18.368Z,937.29
2017-06-17T01:41:46.511Z,937.29
2017-06-17T01:42:14.653Z,937.24
2017-06-17T01:42:42.690Z,937.25
2017-06-17T01:43:10.755Z,937.29
2017-06-17T01:43:38.811Z,937.31
2017-06-17T01:44:06.842Z,937.3
2017-06-17T01:44:34.789Z,937.35
2017-06-17T01:45:02.935Z,937.3
2017-06-17T01:45:31.078Z,937.32
2017-06-17T01:45:59.209Z,937.29
2017-06-17T01:46:27.220Z,937.34
2017-06-17T01:46:55.201Z,937.35
2017-06-17T01:47:23.326Z,937.34
2017-06-17T01:47:51.505Z,937.36
2017-06-17T01:48:19.618Z,937.34
2017-06-17T01:48:47.787Z,937.33
2017-06-17T01:49:15.753Z,937.32
2017-06-17T01:49:43.696Z,937.32
2017-06-17T01:50:11.813Z,937.34
2017-06-17T01:50:39.851Z,937.3
2017-06-17T01:51:08.011Z,937.3
2017-06-17T01:51:36.162Z,937.35
2017-06-17T01:52:04.237Z,937.34
2017-06-17T01:52:32.302Z,937.29
2017-06-17T01:53:00.434Z,937.35
2017-06-17T01:53:28.568Z,937.38
2017-06-17T01:53:56.713Z,937.37
2017-06-17T01:54:24.753Z,937.34
2017-06-17T01:54:52.872Z,937.35
2017-06-17T01:55:20.992Z,937.37
2017-06-17T01:55:48.940Z,937.31
2017-06-17T01:56:16.964Z,937.35
2017-06-17T01:56:45.099Z,937.37
2017-06-17T01:57:13.234Z,937.33
2017-06-17T01:57:41.278Z,937.31
2017-06-17T01:58:09.406Z,937.33
2017-06-17T01:58:37.556Z,937.34
2017-06-17T01:59:05.686Z,937.35
2017-06-17T01:59:33.819Z,937.36
2017-06-17T02:00:01.988Z,937.34
2017-06-17T02:00:30.010Z,937.33
2017-06-17T02:00:58.148Z,937.36
2017-06-17T02:01:26.258Z,937.35
2017-06-17T02:01:54.259Z,937.37
2017-06-17T02:02:22.308Z,937.35
2017-06-17T02:02:50.475Z,937.4
2017-06-17T02:03:18.632Z,937.39
2017-06-17T02:03:46.683Z,937.36
2017-06-17T02:04:14.819Z,937.39
2017-06-17T02:04:42.960Z,937.41
2017-06-17T02:05:10.912Z,937.38
2017-06-17T02:05:39.041Z,937.39
2017-06-17T02:06:07.158Z,937.4
2017-06-17T02:06:35.275Z,937.43
2017-06-17T02:07:03.423Z,937.42
2017-06-17T02:07:31.565Z,937.4
2017-06-17T02:07:59.698Z,937.43
2017-06-17T02:08:27.853Z,937.42
2017-06-17T02:08:55.998Z,937.39
2017-06-17T02:09:24.146Z,937.4
2017-06-17T02:09:52.297Z,937.44
2017-06-17T02:10:20.452Z,937.42
2017-06-17T02:10:48.487Z,937.38
2017-06-17T02:11:16.609Z,937.41
2017-06-17T02:11:44.658Z,937.38
2017-06-17T02:12:12.823Z,937.35
2017-06-17T02:12:40.952Z,937.37
2017-06-17T02:13:09.077Z,937.34
2017-06-17T02:13:37.236Z,937.39
2017-06-17T02:14:05.299Z,937.35
2017-06-17T02:14:33.363Z,937.36
2017-06-17T02:15:01.503Z,937.35
2017-06-17T02:15:29.647Z,937.34
2017-06-17T02:15:57.804Z,937.31
2017-06-17T02:16:25.921Z,937.33
2017-06-17T02:16:54.068Z,937.29
2017-06-17T02:17:22.220Z,937.31
2017-06-17T02:17:50.365Z,937.25
2017-06-17T02:18:18.516Z,937.27
2017-06-17T02:18:46.582Z,937.26
2017-06-17T02:19:14.728Z,937.29
2017-06-17T02:19:42.771Z,937.26
2017-06-17T02:20:10.836Z,937.3
2017-06-17T02:20:38.881Z,937.3
2017-06-17T02:21:06.905Z,937.26
2017-06-17T02:21:35.069Z,937.26
2017-06-17T02:22:03.201Z,937.27
2017-06-17T02:22:31.233Z,937.27
2017-06-17T02:22:59.280Z,937.27
2017-06-17T02:23:27.414Z,937.28
2017-06-17T02:23:55.545Z,937.26
2017-06-17T02:24:23.702Z,937.3
2017-06-17T02:24:51.816Z,937.29
2017-06-17T02:25:19.792Z,937.31
2017-06-17T02:25:47.759Z,937.32
2017-06-17T02:26:15.673Z,937.31
2017-06-17T02:26:43.808Z,937.34
2017-06-17T02:27:11.966Z,937.3
2017-06-17T02:27:40.095Z,937.26
2017-06-17T02:28:08.132Z,937.27
2017-06-17T02:28:36.244Z,937.26
2017-06-17T02:29:04.425Z,937.24
2017-06-17T02:29:32.542Z,937.25
2017-06-17T02:30:00.680Z,937.26
2017-06-17T02:30:28.743Z,937.21
2017-06-17T02:30:56.859Z,937.23
2017-06-17T02:31:25.001Z,937.23
2017-06-17T02:31:53.078Z,937.2
2017-06-17T02:32:21.039Z,937.2
2017-06-17T02:32:49.182Z,937.28
2017-06-17T02:33:17.341Z,937.26
2017-06-17T02:33:45.387Z,937.23
2017-06-17T02:34:13.522Z,937.21
2017-06-17T02:34:41.677Z,937.22
2017-06-17T02:35:09.714Z,937.24
2017-06-17T02:35:37.763Z,937.28
2017-06-17T02:36:05.882Z,937.24
2017-06-17T02:36:33.844Z,937.21
2017-06-17T02:37:01.972Z,937.22
2017-06-17T02:37:30.118Z,937.22
2017-06-17T02:37:58.247Z,937.2
2017-06-17T02:38:26.402Z,937.2
2017-06-17T02:38:54.538Z,937.22
2017-06-17T02:39:22.683Z,937.19
2017-06-17T02:39:50.823Z,937.23
2017-06-17T02:40:18.874Z,937.21
2017-06-17T02:40:47.000Z,937.21
2017-06-17T02:41:14.939Z,937.25
2017-06-17T02:41:43.054Z,937.22
2017-06-17T02:42:11.200Z,937.23
2017-06-17T02:42:39.786Z,937.26
2017-06-17T02:43:08.370Z,937.22
2017-06-17T02:43:36.978Z,937.22
2017-06-17T02:44:05.560Z,937.27
2017-06-17T02:44:33.976Z,937.26
2017-06-17T02:45:02.571Z,937.21
2017-06-17T02:45:30.995Z,937.27
2017-06-17T02:45:59.489Z,937.26
2017-06-17T02:46:27.995Z,937.23
2017-06-17T02:46:56.602Z,937.26
2017-06-17T02:47:25.010Z,937.25
2017-06-17T02:47:53.613Z,937.26
2017-06-17T02:48:22.204Z,937.28
2017-06-17T02:48:50.811Z,937.31
2017-06-17T02:49:19.406Z,937.31
2017-06-17T02:49:47.914Z,937.27
2017-06-17T02:50:16.429Z,937.32
2017-06-17T02:50:44.974Z,937.28
2017-06-17T02:51:13.582Z,937.29
2017-06-17T02:51:42.189Z,937.3
2017-06-17T02:52:10.781Z,937.32
2017-06-17T02:52:39.286Z,937.3
2017-06-17T02:53:07.895Z,937.31
2017-06-17T02:53:36.465Z,937.33
2017-06-17T02:54:04.981Z,937.33
2017-06-17T02:54:33.601Z,937.33
2017-06-17T02:55:02.217Z,937.33
2017-06-17T02:55:30.826Z,937.32
2017-06-17T02:55:59.334Z,937.29
2017-06-17T02:56:27.934Z,937.33
2017-06-17T02:56:56.449Z,937.32
2017-06-17T02:57:25.061Z,937.3
2017-06-17T02:57:53.680Z,937.31
2017-06-17T02:58:22.016Z,937.29
2017-06-17T02:58:50.592Z,937.29
2017-06-17T02:59:19.183Z,937.28
2017-06-17T02:59:47.685Z,937.27
2017-06-17T03:00:16.264Z,937.27
2017-06-17T03:00:44.858Z,937.28
2017-06-17T03:01:13.395Z,937.27
2017-06-17T03:01:41.994Z,937.26
2017-06-17T03:02:10.600Z,937.26
2017-06-17T03:02:39.129Z,937.24
2017-06-17T03:03:07.747Z,937.25
2017-06-17T03:03:36.245Z,937.26
2017-06-17T03:04:04.830Z,937.25
2017-06-17T03:04:33.436Z,937.29
2017-06-17T03:05:02.060Z,937.27
2017-06-17T03:05:30.595Z,937.27
2017-06-17T03:05:59.187Z,937.27
2017-06-17T03:06:27.674Z,937.22
2017-06-17T03:06:56.376Z,937.27
2017-06-17T03:07:24.983Z,937.24
2017-06-17T03:07:53.613Z,937.22
2017-06-17T03:08:22.032Z,937.18
2017-06-17T03:08:50.644Z,937.18
2017-06-17T03:09:19.237Z,937.17
2017-06-17T03:09:47.831Z,937.14
2017-06-17T03:10:16.312Z,937.19
2017-06-17T03:10:44.916Z,937.14
2017-06-17T03:11:13.519Z,937.19
2017-06-17T03:11:42.135Z,937.15
2017-06-17T03:12:10.515Z,937.15
2017-06-17T03:12:39.040Z,937.13
2017-06-17T03:13:07.599Z,937.14
2017-06-17T03:13:36.197Z,937.12
2017-06-17T03:14:04.812Z,937.09
2017-06-17T03:14:33.225Z,937.07
2017-06-17T03:15:01.805Z,937.09
2017-06-17T03:15:30.404Z,937.07
2017-06-17T03:15:58.905Z,937.08
2017-06-17T03:16:27.414Z,937.07
2017-06-17T03:16:56.001Z,937.07
2017-06-17T03:17:24.611Z,937.08
2017-06-17T03:17:53.135Z,937.1
2017-06-17T03:18:21.647Z,937.1
2017-06-17T03:18:50.260Z,937.13
2017-06-17T03:19:18.865Z,937.13
2017-06-17T03:19:47.494Z,937.13
2017-06-17T03:20:15.890Z,937.17
2017-06-17T03:20:44.486Z,937.18
2017-06-17T03:21:13.072Z,937.17
2017-06-17T03:21:41.696Z,937.13
2017-06-17T03:22:10.284Z,937.14
2017-06-17T03:22:38.581Z,937.16
2017-06-17T03:23:07.174Z,937.17
2017-06-17T03:23:35.688Z,937.18
2017-06-17T03:24:04.132Z,937.15
2017-06-17T03:24:32.735Z,937.18
2017-06-17T03:25:01.339Z,937.17
2017-06-17T03:25:29.941Z,937.14
2017-06-17T03:25:58.481Z,937.16
2017-06-17T03:26:27.089Z,937.17
2017-06-17T03:26:55.700Z,937.21
2017-06-17T03:27:24.317Z,937.18
2017-06-17T03:27:52.805Z,937.18
2017-06-17T03:28:21.408Z,937.2
2017-06-17T03:28:49.937Z,937.18
2017-06-17T03:29:18.537Z,937.17
2017-06-17T03:29:47.055Z,937.17
2017-06-17T03:30:15.566Z,937.19
2017-06-17T03:30:44.182Z,937.18
2017-06-17T03:31:12.778Z,937.19
2017-06-17T03:31:41.291Z,937.17
2017-06-17T03:32:26.041Z,937.16
2017-06-17T03:32:54.306Z,937.14
2017-06-17T03:33:22.437Z,937.16
2017-06-17T03:33:50.547Z,937.1
2017-06-17T03:34:18.618Z,937.16
2017-06-17T03:34:46.742Z,937.13
2017-06-17T03:35:14.682Z,937.1
2017-06-17T03:35:42.612Z,937.08
2017-06-17T03:36:10.528Z,937.07
2017-06-17T03:36:38.564Z,937.06
2017-06-17T03:37:06.697Z,937.05
2017-06-17T03:37:34.825Z,937.06
2017-06-17T03:38:02.976Z,937.02
2017-06-17T03:38:31.017Z,937.02
2017-06-17T03:38:59.059Z,936.99
2017-06-17T03:39:27.125Z,936.97
2017-06-17T03:39:55.168Z,936.97
2017-06-17T03:40:23.219Z,936.99
2017-06-17T03:40:51.349Z,936.97
2017-06-17T03:41:19.392Z,936.98
2017-06-17T03:41:47.336Z,937
2017-06-17T03:42:15.485Z,936.99
2017-06-17T03:42:43.506Z,936.98
2017-06-17T03:43:11.660Z,937
2017-06-17T03:43:39.805Z,937.01
2017-06-17T03:44:08.005Z,937
2017-06-17T03:44:35.952Z,937.02
2017-06-17T03:45:04.063Z,937
2017-06-17T03:45:32.214Z,937.01
2017-06-17T03:46:00.369Z,937.01
2017-06-17T03:46:28.460Z,936.97
2017-06-17T03:46:56.616Z,936.98
2017-06-17T03:47:24.569Z,936.95
2017-06-17T03:47:52.678Z,936.98
2017-06-17T03:48:20.711Z,937
2017-06-17T03:48:48.829Z,936.98
2017-06-17T03:49:16.876Z,936.99
2017-06-17T03:49:44.917Z,937.02
2017-06-17T03:50:13.061Z,936.99
2017-06-17T03:50:41.200Z,936.99
2017-06-17T03:51:09.344Z,936.99
2017-06-17T03:51:37.451Z,936.98
2017-06-17T03:52:05.557Z,936.99
2017-06-17T03:52:33.620Z,936.98
2017-06-17T03:53:01.761Z,936.97
2017-06-17T03:53:29.878Z,936.97
2017-06-17T03:53:58.016Z,937
2017-06-17T03:54:25.934Z,936.98
2017-06-17T03:54:53.965Z,937.01
2017-06-17T03:55:22.101Z,936.98
2017-06-17T03:55:50.158Z,936.98
2017-06-17T03:56:18.304Z,936.98
2017-06-17T03:56:46.412Z,937.03
2017-06-17T03:57:14.477Z,936.98
2017-06-17T03:57:42.618Z,936.99
2017-06-17T03:58:10.756Z,937
2017-06-17T03:58:38.712Z,937.02
2017-06-17T03:59:06.749Z,937.01
2017-06-17T03:59:34.911Z,937.01
2017-06-17T04:00:03.046Z,937
2017-06-17T04:00:31.175Z,936.99
2017-06-17T04:00:59.655Z,936.98
2017-06-17T04:01:27.726Z,936.98
2017-06-17T04:01:55.837Z,937
2017-06-17T04:02:23.951Z,937
2017-06-17T04:02:52.087Z,936.98
2017-06-17T04:03:20.148Z,936.97
2017-06-17T04:03:48.271Z,937
2017-06-17T04:04:16.220Z,937.01
2017-06-17T04:04:44.166Z,937.02
2017-06-17T04:05:12.284Z,937
2017-06-17T04:05:40.426Z,936.97
2017-06-17T04:06:08.573Z,937
2017-06-17T04:06:36.618Z,936.97
2017-06-17T04:07:04.754Z,936.99
2017-06-17T04:07:32.913Z,937
2017-06-17T04:08:01.054Z,937.03
2017-06-17T04:08:29.197Z,937
2017-06-17T04:08:57.345Z,937.07
2017-06-17T04:09:25.376Z,937.08
2017-06-17T04:09:53.527Z,937.08
2017-06-17T04:10:21.551Z,937.07
2017-06-17T04:10:49.728Z,937.11
2017-06-17T04:11:17.866Z,937.09
2017-06-17T04:11:45.999Z,937.11
2017-06-17T04:12:14.129Z,937.1
2017-06-17T04:12:42.265Z,937.11
2017-06-17T04:13:10.386Z,937.17
2017-06-17T04:13:38.406Z,937.12
2017-06-17T04:14:06.564Z,937.13
2017-06-17T04:14:34.509Z,937.13
2017-06-17T04:15:02.634Z,937.08
2017-06-17T04:15:30.684Z,937.07
2017-06-17T04:15:58.801Z,937.01
2017-06-17T04:16:26.856Z,937.05
2017-06-17T04:16:54.994Z,937.07
2017-06-17T04:17:23.123Z,937.06
2017-06-17T04:17:51.273Z,937.1
2017-06-17T04:18:19.416Z,937.12
2017-06-17T04:18:47.515Z,937.07
2017-06-17T04:19:15.675Z,937.1
2017-06-17T04:19:43.809Z,937.1
2017-06-17T04:20:11.878Z,937.07
2017-06-17T04:20:39.977Z,937.01
2017-06-17T04:21:08.023Z,937.02
2017-06-17T04:21:35.964Z,937.02
2017-06-17T04:22:04.115Z,936.97
2017-06-17T04:22:32.146Z,937.02
2017-06-17T04:23:00.260Z,937
2017-06-17T04:23:28.386Z,937
2017-06-17T04:23:56.521Z,936.98
2017-06-17T04:24:24.544Z,936.99
2017-06-17T04:24:52.621Z,936.99
2017-06-17T04:25:20.641Z,936.98
2017-06-17T04:25:48.793Z,936.95
2017-06-17T04:26:16.846Z,936.94
2017-06-17T04:26:44.974Z,936.9
2017-06-17T04:27:13.119Z,936.9
2017-06-17T04:27:41.260Z,936.92
2017-06-17T04:28:09.411Z,936.88
2017-06-17T04:28:37.374Z,936.94
2017-06-17T04:29:05.518Z,936.91
2017-06-17T04:29:33.646Z,936.9
2017-06-17T04:30:01.756Z,936.92
2017-06-17T04:30:29.681Z,936.95
2017-06-17T04:30:57.815Z,936.98
2017-06-17T04:31:25.950Z,936.97
2017-06-17T04:31:54.073Z,936.97
2017-06-17T04:32:22.232Z,936.98
2017-06-17T04:32:50.262Z,937
2017-06-17T04:33:18.375Z,936.95
2017-06-17T04:33:46.492Z,936.92
2017-06-17T04:34:14.582Z,936.96
2017-06-17T04:34:42.577Z,936.91
2017-06-17T04:35:10.625Z,936.94
2017-06-17T04:35:38.659Z,936.9
2017-06-17T04:36:06.629Z,936.9
2017-06-17T04:36:34.666Z,936.91
2017-06-17T04:37:02.699Z,936.94
2017-06-17T04:37:30.840Z,936.91
2017-06-17T04:37:58.975Z,936.9
2017-06-17T04:38:27.106Z,936.92
2017-06-17T04:38:55.196Z,936.9
2017-06-17T04:39:23.249Z,936.92
2017-06-17T04:39:51.278Z,936.92
2017-06-17T04:40:19.416Z,936.88
2017-06-17T04:40:47.569Z,936.92
2017-06-17T04:41:15.690Z,936.89
2017-06-17T04:41:43.821Z,936.93
2017-06-17T04:42:11.944Z,936.92
2017-06-17T04:42:39.879Z,936.92
2017-06-17T04:43:08.021Z,936.92
2017-06-17T04:43:36.166Z,936.96
2017-06-17T04:44:04.272Z,936.94
2017-06-17T04:44:32.404Z,936.95
2017-06-17T04:45:00.518Z,936.94
2017-06-17T04:45:28.658Z,936.95
2017-06-17T04:45:56.828Z,936.95
2017-06-17T04:46:24.965Z,936.99
2017-06-17T04:46:53.027Z,936.93
2017-06-17T04:47:21.172Z,936.97
2017-06-17T04:48:03.731Z,936.97
2017-06-17T04:48:31.769Z,936.98
2017-06-17T04:48:59.916Z,936.96
2017-06-17T04:49:28.036Z,936.97
2017-06-17T04:49:56.204Z,936.94
2017-06-17T04:50:24.327Z,936.96
2017-06-17T04:50:52.456Z,936.94
2017-06-17T04:51:20.489Z,936.96
2017-06-17T04:51:48.639Z,936.94
2017-06-17T04:52:16.787Z,936.9
2017-06-17T04:52:44.844Z,936.93
2017-06-17T04:53:12.900Z,936.94
2017-06-17T04:53:40.953Z,936.96
2017-06-17T04:54:09.077Z,936.9
2017-06-17T04:54:37.198Z,936.94
2017-06-17T04:55:05.081Z,936.94
2017-06-17T04:55:33.120Z,936.9
2017-06-17T04:56:01.153Z,936.93
2017-06-17T04:56:29.298Z,936.92
2017-06-17T04:56:57.420Z,936.87
2017-06-17T04:57:25.576Z,936.86
2017-06-17T04:57:53.715Z,936.87
2017-06-17T04:58:21.842Z,936.92
2017-06-17T04:58:49.979Z,936.85
2017-06-17T04:59:18.101Z,936.84
2017-06-17T04:59:46.220Z,936.84
2017-06-17T05:00:14.164Z,936.82
2017-06-17T05:00:42.292Z,936.79
2017-06-17T05:01:10.224Z,936.81
2017-06-17T05:01:38.273Z,936.83
2017-06-17T05:02:06.217Z,936.78
2017-06-17T05:02:34.267Z,936.8
2017-06-17T05:03:02.403Z,936.74
2017-06-17T05:03:30.452Z,936.77
2017-06-17T05:03:58.595Z,936.75
2017-06-17T05:04:26.714Z,936.79
2017-06-17T05:04:54.848Z,936.75
2017-06-17T05:05:22.969Z,936.76
2017-06-17T05:05:51.024Z,936.74
2017-06-17T05:06:19.144Z,936.77
2017-06-17T05:06:47.290Z,936.72
2017-06-17T05:07:15.418Z,936.75
2017-06-17T05:07:43.458Z,936.73
2017-06-17T05:08:11.473Z,936.74
2017-06-17T05:08:39.518Z,936.75
2017-06-17T05:09:07.637Z,936.71
2017-06-17T05:09:35.713Z,936.7
2017-06-17T05:10:04.303Z,936.71
2017-06-17T05:10:32.914Z,936.71
2017-06-17T05:11:01.522Z,936.73
2017-06-17T05:11:30.110Z,936.71
2017-06-17T05:11:58.606Z,936.71
2017-06-17T05:12:27.191Z,936.71
2017-06-17T05:12:55.686Z,936.72
2017-06-17T05:13:24.276Z,936.68
2017-06-17T05:13:52.872Z,936.69
2017-06-17T05:14:21.490Z,936.71
2017-06-17T05:14:49.987Z,936.69
2017-06-17T05:15:18.600Z,936.72
2017-06-17T05:15:47.097Z,936.68
2017-06-17T05:16:15.696Z,936.66
2017-06-17T05:16:44.308Z,936.66
2017-06-17T05:17:12.894Z,936.61
2017-06-17T05:17:41.393Z,936.61
2017-06-17T05:18:09.974Z,936.6
2017-06-17T05:18:38.652Z,936.6
2017-06-17T05:19:07.252Z,936.6
2017-06-17T05:19:35.768Z,936.58
2017-06-17T05:20:04.362Z,936.64
2017-06-17T05:20:32.966Z,936.58
2017-06-17T05:21:01.550Z,936.57
2017-06-17T05:21:30.145Z,936.57
2017-06-17T05:21:58.655Z,936.54
2017-06-17T05:22:27.260Z,936.55
2017-06-17T05:22:55.843Z,936.56
2017-06-17T05:23:24.458Z,936.52
2017-06-17T05:23:52.940Z,936.5
2017-06-17T05:24:21.551Z,936.51
2017-06-17T05:24:50.017Z,936.52
2017-06-17T05:25:18.535Z,936.52
2017-06-17T05:25:47.146Z,936.52
2017-06-17T05:26:15.749Z,936.54
2017-06-17T05:26:44.247Z,936.55
2017-06-17T05:27:12.858Z,936.52
2017-06-17T05:27:41.363Z,936.53
2017-06-17T05:28:09.980Z,936.58
2017-06-17T05:28:38.564Z,936.56
2017-06-17T05:29:07.157Z,936.51
2017-06-17T05:29:35.752Z,936.54
2017-06-17T05:30:04.372Z,936.51
2017-06-17T05:30:32.977Z,936.53
2017-06-17T05:31:01.471Z,936.53
2017-06-17T05:31:30.087Z,936.53
2017-06-17T05:31:58.687Z,936.53
2017-06-17T05:32:27.269Z,936.51
2017-06-17T05:32:56.605Z,936.54
2017-06-17T05:33:25.177Z,936.54
2017-06-17T05:33:53.786Z,936.52
2017-06-17T05:34:22.394Z,936.52
2017-06-17T05:34:50.979Z,936.53
2017-06-17T05:35:19.594Z,936.54
2017-06-17T05:35:48.219Z,936.54
2017-06-17T05:36:16.746Z,936.55
2017-06-17T05:36:45.338Z,936.54
2017-06-17T05:37:13.935Z,936.54
2017-06-17T05:37:42.547Z,936.59
2017-06-17T05:38:11.161Z,936.57
2017-06-17T05:38:39.662Z,936.57
2017-06-17T05:39:08.272Z,936.56
2017-06-17T05:39:36.869Z,936.56
2017-06-17T05:40:05.373Z,936.53
2017-06-17T05:40:33.878Z,936.55
2017-06-17T05:41:02.400Z,936.56
2017-06-17T05:41:30.963Z,936.55
2017-06-17T05:41:59.443Z,936.53
2017-06-17T05:42:27.962Z,936.51
2017-06-17T05:42:56.377Z,936.5
2017-06-17T05:43:24.871Z,936.53
2017-06-17T05:43:53.368Z,936.5
2017-06-17T05:44:21.857Z,936.46
2017-06-17T05:44:50.464Z,936.47
2017-06-17T05:45:19.058Z,936.48
2017-06-17T05:45:47.667Z,936.48
2017-06-17T05:46:16.047Z,936.49
2017-06-17T05:46:44.675Z,936.5
2017-06-17T05:47:13.203Z,936.5
2017-06-17T05:47:41.814Z,936.46
2017-06-17T05:48:10.314Z,936.52
2017-06-17T05:48:38.931Z,936.49
2017-06-17T05:49:07.456Z,936.52
2017-06-17T05:49:35.866Z,936.49
2017-06-17T05:50:04.460Z,936.48
2017-06-17T05:50:33.036Z,936.49
2017-06-17T05:51:01.549Z,936.49
2017-06-17T05:51:30.139Z,936.48
2017-06-17T05:51:58.742Z,936.5
2017-06-17T05:52:27.330Z,936.49
2017-06-17T05:52:55.928Z,936.49
2017-06-17T05:53:24.528Z,936.53
2017-06-17T05:53:53.130Z,936.49
2017-06-17T05:54:21.641Z,936.5